Time;durP1;ratioP1;P1;durP2;ratioP2;P2;SDS_P1;SDS_P2;PMS_P1;PMS_P2;Temp;Humidity;BMP_temperature;BMP_pressure;BME280_temperature;BME280_humidity;BME280_pressure;Samples;Min_cycle;Max_cycle;Signal;HPM_P1;HPM_P2
2024/01/25 00:01:45;;;;;;;43.17;26.97;;;6.80;87.80;;;;;;5078985;28;20185;-90
2024/01/25 00:04:11;;;;;;;58.40;28.07;;;6.80;87.70;;;;;;5077731;28;20654;-89
2024/01/25 00:06:36;;;;;;;58.67;28.47;;;6.80;87.80;;;;;;5077891;28;20201;-90
2024/01/25 00:09:04;;;;;;;71.90;28.53;;;6.70;87.70;;;;;;5078044;28;20238;-89
2024/01/25 00:11:31;;;;;;;63.50;27.57;;;6.80;87.90;;;;;;5095909;28;20223;-90
2024/01/25 00:13:57;;;;;;;65.17;28.73;;;6.70;87.90;;;;;;5078827;28;20187;-90
2024/01/25 00:16:22;;;;;;;53.03;25.20;;;6.70;87.90;;;;;;5078186;28;20203;-89
2024/01/25 00:18:48;;;;;;;61.83;18.30;;;6.80;87.70;;;;;;5096212;28;20175;-90
2024/01/25 00:21:13;;;;;;;60.60;19.73;;;6.70;87.70;;;;;;5077981;28;20239;-90
2024/01/25 00:23:39;;;;;;;56.17;18.67;;;6.70;87.90;;;;;;5096156;28;20210;-89
2024/01/25 00:26:04;;;;;;;59.10;19.33;;;6.70;87.80;;;;;;5095639;28;20265;-89
2024/01/25 00:28:30;;;;;;;63.73;19.43;;;6.70;87.80;;;;;;5077772;28;20709;-89
2024/01/25 00:30:55;;;;;;;58.27;18.87;;;6.70;87.70;;;;;;5077732;28;20265;-89
2024/01/25 00:33:21;;;;;;;67.07;19.50;;;6.70;87.80;;;;;;5077906;28;20212;-89
2024/01/25 00:35:48;;;;;;;69.77;20.50;;;6.70;87.80;;;;;;5077880;28;20185;-89
2024/01/25 00:38:13;;;;;;;53.70;18.43;;;6.60;87.90;;;;;;5095770;28;20171;-89
2024/01/25 00:40:40;;;;;;;44.50;18.10;;;6.70;88.10;;;;;;5077828;28;20235;-89
2024/01/25 00:43:05;;;;;;;51.30;19.13;;;6.70;87.80;;;;;;5077726;28;20175;-89
2024/01/25 00:45:31;;;;;;;51.57;18.07;;;6.70;87.60;;;;;;5077781;28;20202;-90
2024/01/25 00:47:57;;;;;;;59.27;19.83;;;6.70;87.80;;;;;;5077724;28;20673;-90
2024/01/25 00:50:25;;;;;;;48.60;17.23;;;6.70;87.90;;;;;;5077607;28;20615;-90
2024/01/25 00:52:51;;;;;;;56.10;18.30;;;6.60;88.10;;;;;;5095781;28;20167;-90
2024/01/25 00:55:17;;;;;;;48.93;17.77;;;6.60;88.10;;;;;;5077100;28;20178;-89
2024/01/25 00:57:43;;;;;;;56.13;18.13;;;6.60;88.00;;;;;;5077634;28;20692;-89
2024/01/25 01:00:10;;;;;;;60.53;19.17;;;6.60;88.00;;;;;;5077292;28;20553;-90
2024/01/25 01:02:41;;;;;;;65.83;19.93;;;6.60;87.90;;;;;;5095039;28;20182;-89
2024/01/25 01:05:07;;;;;;;50.03;18.23;;;6.60;88.10;;;;;;5076545;28;20201;-89
2024/01/25 01:07:33;;;;;;;50.50;17.03;;;6.50;88.10;;;;;;5077020;28;20281;-90
2024/01/25 01:09:58;;;;;;;48.20;19.03;;;6.50;88.20;;;;;;5077169;28;20788;-90
2024/01/25 01:12:24;;;;;;;58.47;18.17;;;6.50;88.00;;;;;;5077103;28;20696;-91
2024/01/25 01:14:49;;;;;;;52.03;17.30;;;6.60;88.20;;;;;;5077102;28;20553;-91
2024/01/25 01:17:15;;;;;;;51.60;17.70;;;6.50;88.00;;;;;;5076804;28;20201;-91
2024/01/25 01:19:41;;;;;;;60.47;19.57;;;6.60;87.90;;;;;;5076763;28;20273;-90
2024/01/25 01:22:06;;;;;;;53.80;19.90;;;6.50;87.90;;;;;;5076967;28;20209;-89
2024/01/25 01:24:32;;;;;;;62.30;19.30;;;6.50;88.10;;;;;;5094677;28;20206;-89
2024/01/25 01:26:59;;;;;;;50.53;18.73;;;6.50;88.00;;;;;;5077447;28;20198;-90
2024/01/25 01:29:24;;;;;;;47.37;18.83;;;6.50;88.10;;;;;;5095129;28;20212;-90
2024/01/25 01:31:50;;;;;;;44.97;16.77;;;6.50;88.20;;;;;;5076535;28;20178;-90
2024/01/25 01:34:17;;;;;;;44.50;15.07;;;6.50;88.20;;;;;;5094973;28;20174;-89
2024/01/25 01:36:43;;;;;;;59.03;16.57;;;6.50;88.20;;;;;;5076319;28;20230;-89
2024/01/25 01:39:08;;;;;;;49.87;18.27;;;6.50;88.10;;;;;;5076806;28;20709;-90
2024/01/25 01:41:34;;;;;;;43.53;13.67;;;6.40;88.10;;;;;;5094893;28;20550;-90
2024/01/25 01:44:00;;;;;;;50.03;17.30;;;6.50;88.20;;;;;;5076681;28;20581;-89
2024/01/25 01:46:31;;;;;;;38.87;16.60;;;6.50;87.90;;;;;;5094757;28;20232;-89
2024/01/25 01:48:57;;;;;;;52.83;17.60;;;6.50;88.20;;;;;;5076294;28;20717;-90
2024/01/25 01:51:22;;;;;;;30.63;13.97;;;6.60;88.20;;;;;;5076563;28;20215;-89
2024/01/25 01:53:48;;;;;;;55.17;17.27;;;6.50;88.30;;;;;;5076506;28;20170;-89
2024/01/25 01:56:14;;;;;;;54.03;19.23;;;6.50;88.20;;;;;;5076415;28;20194;-90
2024/01/25 01:58:41;;;;;;;43.33;15.10;;;6.40;88.50;;;;;;5076283;28;20175;-90
2024/01/25 02:01:06;;;;;;;65.93;18.33;;;6.50;88.60;;;;;;5076385;28;20175;-89
2024/01/25 02:03:32;;;;;;;34.30;14.53;;;6.40;88.60;;;;;;5076281;28;20213;-89
2024/01/25 02:06:02;;;;;;;44.47;16.33;;;6.40;88.80;;;;;;5094530;28;20241;-89
2024/01/25 02:08:31;;;;;;;;;;;6.50;88.80;;;;;;5076456;28;20282;-89
2024/01/25 02:10:56;;;;;;;;;;;6.50;88.70;;;;;;5076186;28;20173;-89
2024/01/25 02:13:22;;;;;;;45.83;15.80;;;6.50;88.80;;;;;;5076188;28;19966;-89
2024/01/25 02:15:48;;;;;;;47.20;15.93;;;6.50;88.60;;;;;;5094288;28;20178;-89
2024/01/25 02:18:14;;;;;;;40.20;15.13;;;6.60;88.70;;;;;;5094168;28;20178;-89
2024/01/25 02:20:40;;;;;;;41.93;15.23;;;6.50;88.50;;;;;;5076167;28;20186;-89
2024/01/25 02:23:06;;;;;;;48.53;16.50;;;6.50;88.70;;;;;;5094264;28;20175;-89
2024/01/25 02:25:31;;;;;;;43.10;16.50;;;6.60;88.50;;;;;;5077029;28;20206;-89
2024/01/25 02:27:57;;;;;;;54.67;15.83;;;6.60;88.50;;;;;;5076082;28;20561;-89
2024/01/25 02:30:22;;;;;;;45.80;23.80;;;6.50;88.60;;;;;;5093931;28;20170;-89
2024/01/25 02:32:48;;;;;;;58.13;25.00;;;6.60;88.60;;;;;;5093646;28;20174;-88
2024/01/25 02:35:13;;;;;;;64.47;25.47;;;6.60;88.80;;;;;;5075757;28;20646;-89
2024/01/25 02:37:39;;;;;;;47.73;26.13;;;6.60;88.60;;;;;;5093314;28;20236;-89
2024/01/25 02:40:05;;;;;;;44.53;22.73;;;6.60;88.70;;;;;;5093468;28;20174;-89
2024/01/25 02:42:30;;;;;;;39.30;24.53;;;6.50;88.80;;;;;;5076126;28;20529;-89
2024/01/25 02:44:56;;;;;;;45.83;22.63;;;6.60;88.90;;;;;;5075101;28;20294;-90
2024/01/25 02:47:21;;;;;;;37.87;21.70;;;6.60;88.80;;;;;;5075256;28;20562;-89
2024/01/25 02:49:47;;;;;;;42.60;22.97;;;6.50;88.90;;;;;;5075236;28;20171;-90
2024/01/25 02:52:12;;;;;;;56.73;25.73;;;6.50;89.00;;;;;;5075234;28;20178;-89
2024/01/25 02:54:38;;;;;;;57.00;25.70;;;6.60;88.80;;;;;;5093267;28;20635;-89
2024/01/25 02:57:04;;;;;;;34.20;22.00;;;6.60;88.90;;;;;;5093614;28;20202;-89
2024/01/25 02:59:30;;;;;;;43.63;22.27;;;6.50;88.90;;;;;;5075452;28;20186;-89
2024/01/25 03:01:55;;;;;;;58.30;26.33;;;6.60;88.90;;;;;;5075297;28;20558;-89
2024/01/25 03:04:21;;;;;;;53.57;24.83;;;6.60;88.60;;;;;;5074898;28;20210;-89
2024/01/25 03:06:46;;;;;;;57.03;27.53;;;6.50;88.80;;;;;;5075094;28;20206;-89
2024/01/25 03:09:12;;;;;;;65.97;18.07;;;6.50;88.90;;;;;;5093612;28;20166;-89
2024/01/25 03:11:38;;;;;;;51.27;16.97;;;6.60;89.00;;;;;;5093934;28;20235;-89
2024/01/25 03:14:04;;;;;;;69.50;19.33;;;6.50;89.10;;;;;;5093832;28;20202;-89
2024/01/25 03:16:29;;;;;;;51.17;17.00;;;6.60;89.00;;;;;;5076024;28;20226;-89
2024/01/25 03:18:55;;;;;;;43.93;16.73;;;6.60;89.00;;;;;;5075748;28;20178;-89
2024/01/25 03:21:20;;;;;;;49.70;16.00;;;6.60;88.90;;;;;;5093820;28;20254;-89
2024/01/25 03:23:46;;;;;;;56.83;17.20;;;6.70;88.70;;;;;;5094358;28;20202;-89
2024/01/25 03:26:11;;;;;;;68.10;17.27;;;6.60;88.80;;;;;;5093850;28;20187;-90
2024/01/25 03:28:39;;;;;;;48.83;17.40;;;6.60;88.90;;;;;;5095470;28;20580;-89
2024/01/25 03:31:04;;;;;;;51.43;17.53;;;6.70;89.00;;;;;;5079212;28;20565;-89
2024/01/25 03:33:32;;;;;;;64.57;17.53;;;6.70;89.00;;;;;;5097283;28;20175;-89
2024/01/25 03:36:04;;;;;;;54.17;16.83;;;6.70;89.10;;;;;;5079013;28;20191;-89
2024/01/25 03:38:30;;;;;;;50.17;16.63;;;6.70;89.00;;;;;;5097290;28;20151;-89
2024/01/25 03:40:58;;;;;;;38.33;15.93;;;6.70;89.00;;;;;;5097418;28;20177;-89
2024/01/25 03:43:25;;;;;;;40.43;15.63;;;6.60;89.10;;;;;;5079861;28;20182;-89
2024/01/25 03:45:51;;;;;;;41.33;15.37;;;6.70;89.10;;;;;;5079022;28;20202;-89
2024/01/25 03:48:17;;;;;;;57.67;16.17;;;6.60;89.10;;;;;;5096721;28;20170;-89
2024/01/25 03:50:43;;;;;;;51.87;16.87;;;6.60;89.30;;;;;;5078779;28;20175;-89
2024/01/25 03:53:08;;;;;;;58.10;16.43;;;6.50;89.30;;;;;;5078972;28;20653;-89
2024/01/25 03:55:34;;;;;;;68.00;15.70;;;6.60;89.20;;;;;;5078977;28;20179;-89
2024/01/25 03:58:00;;;;;;;50.47;17.10;;;6.50;89.30;;;;;;5078547;28;20255;-89
2024/01/25 04:00:25;;;;;;;33.13;15.70;;;6.50;89.30;;;;;;5096120;28;20178;-89
2024/01/25 04:02:51;;;;;;;55.80;16.60;;;6.50;89.50;;;;;;5078253;28;20192;-89
2024/01/25 04:05:17;;;;;;;59.77;16.80;;;6.50;89.30;;;;;;5077728;28;20305;-89
2024/01/25 04:07:42;;;;;;;69.50;16.63;;;6.50;89.30;;;;;;5095823;28;20247;-89
2024/01/25 04:10:08;;;;;;;58.17;17.43;;;6.50;89.40;;;;;;5077725;28;20167;-90
2024/01/25 04:12:34;;;;;;;61.77;17.63;;;6.50;89.30;;;;;;5077783;28;20175;-89
2024/01/25 04:14:59;;;;;;;48.50;17.30;;;6.50;89.30;;;;;;5078137;28;20174;-89
2024/01/25 04:17:25;;;;;;;57.90;20.80;;;6.40;89.30;;;;;;5095745;28;20197;-89
2024/01/25 04:19:51;;;;;;;48.93;17.93;;;6.40;89.40;;;;;;5077791;28;20554;-89
2024/01/25 04:22:16;;;;;;;64.37;18.83;;;6.40;89.40;;;;;;5077525;28;20228;-89
2024/01/25 04:24:43;;;;;;;51.60;16.63;;;6.40;89.40;;;;;;5077770;28;20236;-89
2024/01/25 04:27:09;;;;;;;50.50;17.93;;;6.40;89.40;;;;;;5096008;28;20182;-89
2024/01/25 04:29:41;;;;;;;52.40;17.50;;;6.40;89.50;;;;;;5096263;28;20171;-89
2024/01/25 04:32:07;;;;;;;30.53;14.30;;;6.30;89.50;;;;;;5078179;28;20188;-89
2024/01/25 04:34:33;;;;;;;44.27;16.03;;;6.30;89.70;;;;;;5096063;28;20174;-89
2024/01/25 04:36:59;;;;;;;54.00;16.40;;;6.40;89.50;;;;;;5077796;28;20268;-89
2024/01/25 04:39:24;;;;;;;46.47;17.17;;;6.30;89.50;;;;;;5078059;28;20178;-89
2024/01/25 04:41:50;;;;;;;50.53;18.40;;;6.30;89.60;;;;;;5077527;28;20197;-89
2024/01/25 04:44:15;;;;;;;47.23;17.73;;;6.30;89.60;;;;;;5095990;28;20285;-89
2024/01/25 04:46:42;;;;;;;58.20;17.33;;;6.30;89.70;;;;;;5095648;28;20206;-89
2024/01/25 04:49:07;;;;;;;58.60;16.37;;;6.40;89.70;;;;;;5078073;28;20681;-89
2024/01/25 04:51:33;;;;;;;57.37;16.93;;;6.40;89.60;;;;;;5077484;28;20178;-89
2024/01/25 04:53:58;;;;;;;52.57;16.00;;;6.30;89.60;;;;;;5077967;28;20171;-89
2024/01/25 04:56:24;;;;;;;52.43;16.30;;;6.30;89.70;;;;;;5077351;28;20628;-89
2024/01/25 04:58:49;;;;;;;51.50;16.70;;;6.30;89.80;;;;;;5077045;28;20710;-89
2024/01/25 05:01:15;;;;;;;50.10;16.80;;;6.30;89.90;;;;;;5077253;28;20591;-89
2024/01/25 05:03:40;;;;;;;44.77;16.83;;;6.30;89.90;;;;;;5077588;28;20179;-89
2024/01/25 05:06:06;;;;;;;42.83;15.37;;;6.30;89.80;;;;;;5077678;28;20230;-89
2024/01/25 05:08:31;;;;;;;42.13;18.57;;;6.30;90.00;;;;;;5077117;28;20174;-90
2024/01/25 05:10:57;;;;;;;33.37;15.60;;;6.30;90.00;;;;;;5095401;28;20594;-89
2024/01/25 05:13:22;;;;;;;53.67;16.13;;;6.30;90.00;;;;;;5095279;28;20242;-89
2024/01/25 05:15:48;;;;;;;49.77;15.77;;;6.30;90.00;;;;;;5095028;28;20179;-89
2024/01/25 05:18:14;;;;;;;58.10;25.57;;;6.30;90.10;;;;;;5095024;28;20634;-89
2024/01/25 05:20:40;;;;;;;63.10;26.37;;;6.30;90.20;;;;;;5094737;28;20586;-89
2024/01/25 05:23:05;;;;;;;43.87;23.93;;;6.30;90.10;;;;;;5076356;28;20217;-89
2024/01/25 05:25:31;;;;;;;62.30;27.43;;;6.30;90.20;;;;;;5094767;28;20255;-89
2024/01/25 05:27:57;;;;;;;38.73;24.23;;;6.20;90.20;;;;;;5076400;28;20277;-89
2024/01/25 05:30:24;;;;;;;51.37;21.40;;;6.20;90.50;;;;;;5076149;28;20551;-89
2024/01/25 05:32:50;;;;;;;45.97;23.87;;;6.20;90.50;;;;;;5077286;28;20209;-89
2024/01/25 05:35:16;;;;;;;62.07;24.60;;;6.20;90.50;;;;;;5076111;28;20186;-89
2024/01/25 05:37:42;;;;;;;58.90;27.93;;;6.10;90.40;;;;;;5076887;28;20237;-90
2024/01/25 05:40:09;;;;;;;64.17;26.63;;;6.10;90.50;;;;;;5076484;28;20182;-89
2024/01/25 05:42:35;;;;;;;42.50;23.73;;;6.10;90.60;;;;;;5076194;28;20178;-89
2024/01/25 05:45:02;;;;;;;53.97;26.00;;;6.10;90.70;;;;;;5093981;28;20194;-89
2024/01/25 05:47:27;;;;;;;34.30;22.33;;;6.10;90.70;;;;;;5076583;28;20569;-89
2024/01/25 05:49:53;;;;;;;59.47;24.93;;;6.20;90.70;;;;;;5094723;28;20178;-88
2024/01/25 05:52:20;;;;;;;31.93;20.87;;;6.10;90.50;;;;;;5076047;28;20181;-89
2024/01/25 05:54:45;;;;;;;52.10;22.77;;;6.10;90.60;;;;;;5094744;28;20166;-88
2024/01/25 05:57:11;;;;;;;51.73;22.03;;;6.10;90.60;;;;;;5076528;28;20248;-89
2024/01/25 05:59:36;;;;;;;56.77;21.27;;;6.10;90.60;;;;;;5095341;28;20657;-90
2024/01/25 06:02:02;;;;;;;56.27;22.03;;;6.10;90.60;;;;;;5076708;28;20178;-89
2024/01/25 06:04:27;;;;;;;46.03;19.80;;;6.00;90.50;;;;;;5093904;28;20698;-90
2024/01/25 06:06:53;;;;;;;68.30;23.30;;;6.10;90.60;;;;;;5076134;28;20194;-89
2024/01/25 06:09:19;;;;;;;53.30;22.93;;;6.00;90.80;;;;;;5076590;28;20178;-89
2024/01/25 06:11:44;;;;;;;54.73;23.57;;;6.00;90.70;;;;;;5094290;28;20173;-89
2024/01/25 06:14:11;;;;;;;49.93;23.93;;;6.00;90.80;;;;;;5076184;28;20181;-89
2024/01/25 06:16:37;;;;;;;50.23;16.43;;;6.00;90.80;;;;;;5076234;28;20255;-89
2024/01/25 06:19:03;;;;;;;53.00;14.60;;;6.00;90.80;;;;;;5076352;28;20515;-89
2024/01/25 06:21:29;;;;;;;42.60;14.27;;;6.00;90.80;;;;;;5094105;28;20209;-89
2024/01/25 06:23:54;;;;;;;48.40;16.33;;;6.00;90.80;;;;;;5076230;28;20175;-89
2024/01/25 06:26:20;;;;;;;57.37;16.47;;;6.00;90.90;;;;;;5076211;28;20186;-89
2024/01/25 06:28:46;;;;;;;53.87;15.90;;;5.90;91.00;;;;;;5076265;28;20175;-89
2024/01/25 06:31:11;;;;;;;43.67;14.43;;;6.00;91.10;;;;;;5094279;28;20174;-89
2024/01/25 06:33:37;;;;;;;43.60;13.43;;;5.90;91.10;;;;;;5094288;28;20549;-89
2024/01/25 06:36:02;;;;;;;53.57;14.97;;;5.90;91.10;;;;;;5075808;28;20226;-88
2024/01/25 06:38:28;;;;;;;47.27;15.33;;;5.90;91.30;;;;;;5076578;28;20261;-89
2024/01/25 06:40:53;;;;;;;42.57;14.40;;;5.90;91.30;;;;;;5076058;28;20183;-89
2024/01/25 06:43:19;;;;;;;61.00;15.07;;;5.80;91.30;;;;;;5076189;28;20212;-89
2024/01/25 06:45:45;;;;;;;59.87;14.50;;;5.80;91.40;;;;;;5093907;28;20257;-89
2024/01/25 06:48:11;;;;;;;51.33;14.43;;;5.80;91.50;;;;;;5094702;28;20163;-89
2024/01/25 06:50:36;;;;;;;49.10;14.93;;;5.80;91.50;;;;;;5094241;28;20159;-89
2024/01/25 06:53:02;;;;;;;52.37;14.80;;;5.80;91.70;;;;;;5076297;28;20178;-89
2024/01/25 06:55:28;;;;;;;49.20;14.07;;;5.80;91.70;;;;;;5076011;28;20224;-89
2024/01/25 06:57:53;;;;;;;45.53;15.00;;;5.80;91.60;;;;;;5094004;28;20222;-89
2024/01/25 07:00:20;;;;;;;52.10;13.57;;;5.90;91.60;;;;;;5076147;28;20174;-89
2024/01/25 07:02:46;;;;;;;56.77;15.17;;;5.90;91.70;;;;;;5076545;28;20202;-89
2024/01/25 07:05:12;;;;;;;54.83;14.17;;;5.90;91.60;;;;;;5079829;28;20263;-89
2024/01/25 07:07:38;;;;;;;46.53;14.13;;;6.00;91.70;;;;;;5079798;28;20191;-89
2024/01/25 07:10:05;;;;;;;49.37;13.30;;;6.00;91.60;;;;;;5097864;28;20666;-89
2024/01/25 07:12:31;;;;;;;49.83;13.83;;;6.00;91.60;;;;;;5098177;28;20162;-89
2024/01/25 07:14:56;;;;;;;51.60;14.13;;;6.00;91.50;;;;;;5080026;28;20179;-89
2024/01/25 07:17:22;;;;;;;41.07;13.40;;;6.00;91.60;;;;;;5097619;28;20197;-89
2024/01/25 07:19:47;;;;;;;47.40;13.57;;;6.00;91.60;;;;;;5097971;28;20258;-89
2024/01/25 07:22:15;;;;;;;43.00;15.43;;;6.00;91.60;;;;;;5079611;28;20174;-89
2024/01/25 07:24:40;;;;;;;49.13;13.90;;;6.00;91.60;;;;;;5097660;28;20550;-88
2024/01/25 07:27:06;;;;;;;54.63;14.53;;;6.00;91.70;;;;;;5097590;28;20195;-89
2024/01/25 07:29:31;;;;;;;50.17;13.87;;;6.00;91.80;;;;;;5098020;28;20171;-89
2024/01/25 07:31:57;;;;;;;56.20;14.87;;;6.00;91.80;;;;;;5097556;28;20257;-89
2024/01/25 07:34:22;;;;;;;56.30;13.70;;;6.00;91.90;;;;;;5097573;28;20235;-89
2024/01/25 07:36:48;;;;;;;58.43;16.13;;;5.90;92.00;;;;;;5097451;28;20294;-89
2024/01/25 07:39:14;;;;;;;54.77;14.07;;;6.00;92.00;;;;;;5079666;28;20186;-89
2024/01/25 07:41:39;;;;;;;48.83;14.07;;;6.00;92.00;;;;;;5098127;28;20754;-89
2024/01/25 07:44:05;;;;;;;74.27;16.63;;;6.00;92.10;;;;;;5079198;28;20182;-89
2024/01/25 07:46:31;;;;;;;49.77;13.83;;;6.10;92.10;;;;;;5079367;28;20194;-89
2024/01/25 07:48:57;;;;;;;45.17;13.70;;;6.10;92.00;;;;;;5080024;28;20261;-89
2024/01/25 07:51:22;;;;;;;51.83;15.27;;;6.00;92.00;;;;;;5079268;28;20249;-90
2024/01/25 07:53:48;;;;;;;61.73;13.83;;;6.00;92.00;;;;;;5078857;28;20255;-89
2024/01/25 07:56:13;;;;;;;58.10;14.60;;;6.10;92.10;;;;;;5078384;28;20207;-89
2024/01/25 07:58:41;;;;;;;53.43;13.87;;;6.10;92.00;;;;;;5078320;28;20171;-89
2024/01/25 08:01:06;;;;;;;50.07;15.13;;;6.10;92.00;;;;;;5096165;28;20605;-89
2024/01/25 08:03:32;;;;;;;63.43;14.80;;;6.20;92.00;;;;;;5096386;28;20230;-89
2024/01/25 08:06:02;;;;;;;62.17;15.33;;;6.10;92.00;;;;;;5095783;28;20237;-89
2024/01/25 08:08:28;;;;;;;43.40;13.50;;;6.20;92.10;;;;;;5077933;28;20672;-89
2024/01/25 08:10:54;;;;;;;66.83;15.93;;;6.10;92.10;;;;;;5077881;28;20190;-89
2024/01/25 08:13:19;;;;;;;67.50;14.47;;;6.20;92.10;;;;;;5095466;28;20167;-89
2024/01/25 08:15:45;;;;;;;51.33;13.73;;;6.20;92.10;;;;;;5077450;28;20236;-89
2024/01/25 08:18:11;;;;;;;48.80;14.93;;;6.20;92.00;;;;;;5096273;28;20186;-91
2024/01/25 08:20:39;;;;;;;53.07;13.33;;;6.20;92.00;;;;;;5095761;28;20308;-89
2024/01/25 08:23:07;;;;;;;55.97;15.30;;;6.20;92.00;;;;;;5096415;28;20173;-90
2024/01/25 08:25:33;;;;;;;40.60;16.23;;;6.20;92.00;;;;;;5077559;28;20194;-89
2024/01/25 08:27:58;;;;;;;47.83;14.57;;;6.10;92.10;;;;;;5096033;28;20193;-90
2024/01/25 08:30:24;;;;;;;53.90;22.07;;;6.10;92.10;;;;;;5096289;28;20182;-90
2024/01/25 08:32:51;;;;;;;56.57;21.90;;;6.10;92.20;;;;;;5078034;28;20228;-90
2024/01/25 08:35:17;;;;;;;55.07;21.13;;;6.10;92.20;;;;;;5096352;28;20167;-90
2024/01/25 08:37:42;;;;;;;66.47;23.00;;;6.10;92.20;;;;;;5077757;28;20247;-89
2024/01/25 08:40:09;;;;;;;55.10;19.93;;;6.20;92.20;;;;;;5095859;28;20706;-89
2024/01/25 08:42:35;;;;;;;60.73;20.93;;;6.20;92.20;;;;;;5078902;28;20545;-89
2024/01/25 08:45:01;;;;;;;57.27;19.27;;;6.20;92.20;;;;;;5078232;28;20228;-88
2024/01/25 08:47:26;;;;;;;57.07;21.80;;;6.20;92.20;;;;;;5079276;28;20199;-89
2024/01/25 08:49:52;;;;;;;54.13;17.80;;;6.20;92.20;;;;;;5096593;28;20167;-89
2024/01/25 08:52:17;;;;;;;43.77;16.83;;;6.30;92.20;;;;;;5078410;28;20566;-89
2024/01/25 08:54:43;;;;;;;56.87;17.43;;;6.30;92.10;;;;;;5096580;28;20217;-89
2024/01/25 08:57:09;;;;;;;61.67;17.17;;;6.30;92.10;;;;;;5078361;28;20210;-89
2024/01/25 08:59:37;;;;;;;59.80;17.30;;;6.30;92.10;;;;;;5096337;28;20167;-89
2024/01/25 09:02:06;;;;;;;56.73;17.90;;;6.30;92.20;;;;;;5078323;28;20189;-89
2024/01/25 09:04:32;;;;;;;51.50;16.53;;;6.30;92.20;;;;;;5077997;28;20206;-90
2024/01/25 09:06:58;;;;;;;55.07;18.90;;;6.30;92.20;;;;;;5078299;28;20322;-89
2024/01/25 09:09:24;;;;;;;58.33;17.57;;;6.30;92.20;;;;;;5095185;28;20642;-90
2024/01/25 09:11:49;;;;;;;59.93;19.23;;;6.30;92.10;;;;;;5095297;28;20179;-89
2024/01/25 09:14:15;;;;;;;57.03;18.53;;;6.30;92.10;;;;;;5076800;28;20179;-90
2024/01/25 09:16:40;;;;;;;70.43;17.93;;;6.40;92.10;;;;;;5076805;28;20217;-89
2024/01/25 09:19:06;;;;;;;66.67;17.53;;;6.40;92.10;;;;;;5077427;28;20179;-90
2024/01/25 09:21:31;;;;;;;52.23;15.83;;;6.40;92.00;;;;;;5095174;28;20206;-89
2024/01/25 09:23:57;;;;;;;57.47;17.33;;;6.40;92.00;;;;;;5077113;28;20214;-89
2024/01/25 09:26:23;;;;;;;55.73;16.20;;;6.40;92.00;;;;;;5076219;28;20225;-90
2024/01/25 09:28:48;;;;;;;52.27;14.30;;;6.40;92.00;;;;;;5076913;28;20582;-89
2024/01/25 09:31:14;;;;;;;48.33;13.37;;;6.40;92.00;;;;;;5077038;28;20178;-89
2024/01/25 09:33:39;;;;;;;76.87;16.00;;;6.50;91.90;;;;;;5076766;28;20665;-89
2024/01/25 09:36:05;;;;;;;44.73;12.87;;;6.50;91.90;;;;;;5077403;28;20558;-89
2024/01/25 09:38:31;;;;;;;;;;;6.60;91.90;;;;;;5095570;28;20193;-89
2024/01/25 09:40:57;;;;;;;36.17;11.90;;;6.60;91.70;;;;;;5094792;28;20439;-89
2024/01/25 09:43:22;;;;;;;50.57;14.63;;;6.60;91.60;;;;;;5077184;28;20593;-89
2024/01/25 09:45:54;;;;;;;35.53;13.23;;;6.70;91.40;;;;;;5078032;28;20241;-89
2024/01/25 09:48:20;;;;;;;62.13;14.07;;;6.70;91.40;;;;;;5095030;28;20167;-89
2024/01/25 09:50:48;;;;;;;56.33;14.40;;;6.70;91.40;;;;;;5077319;28;20189;-89
2024/01/25 09:53:20;;;;;;;41.00;15.03;;;6.80;91.40;;;;;;5077365;28;20701;-88
2024/01/25 09:55:57;;;;;;;52.13;15.50;;;6.80;91.40;;;;;;5078069;28;20178;-89
2024/01/25 09:58:25;;;;;;;46.77;14.27;;;6.80;91.40;;;;;;5097018;28;20166;-89
2024/01/25 10:00:50;;;;;;;47.93;15.00;;;6.80;91.40;;;;;;5076958;28;20548;-89
2024/01/25 10:03:16;;;;;;;39.00;13.07;;;6.80;91.30;;;;;;5076762;28;20198;-89
2024/01/25 10:05:41;;;;;;;55.47;15.67;;;6.80;91.30;;;;;;5095305;28;20275;-89
2024/01/25 10:08:13;;;;;;;46.87;13.77;;;6.80;91.20;;;;;;5076342;28;20186;-89
2024/01/25 10:10:38;;;;;;;59.80;16.07;;;6.80;91.20;;;;;;5076679;28;20256;-88
2024/01/25 10:13:05;;;;;;;54.53;14.97;;;6.90;91.10;;;;;;5076814;28;20178;-89
2024/01/25 10:15:30;;;;;;;52.00;14.93;;;6.90;91.00;;;;;;5077411;28;20175;-89
2024/01/25 10:17:56;;;;;;;49.37;14.90;;;7.00;91.00;;;;;;5094207;28;20727;-89
2024/01/25 10:20:24;;;;;;;27.40;11.83;;;6.90;90.80;;;;;;5075747;28;20174;-89
2024/01/25 10:22:49;;;;;;;56.43;14.97;;;7.00;90.80;;;;;;5075556;28;20190;-88
2024/01/25 10:25:15;;;;;;;49.80;14.23;;;7.00;90.70;;;;;;5075505;28;20241;-89
2024/01/25 10:27:42;;;;;;;51.70;15.35;;;7.10;90.70;;;;;;5093562;28;20277;-88
2024/01/25 10:30:09;;;;;;;49.60;15.30;;;7.10;90.70;;;;;;5075948;28;20189;-89
2024/01/25 10:32:35;;;;;;;56.13;16.93;;;7.10;90.70;;;;;;5075618;28;20186;-87
2024/01/25 10:35:02;;;;;;;27.43;12.57;;;7.10;90.60;;;;;;5075072;28;20175;-88
2024/01/25 10:37:28;;;;;;;48.50;15.43;;;7.10;90.50;;;;;;5077915;28;20685;-88
2024/01/25 10:39:55;;;;;;;50.50;14.83;;;7.20;90.50;;;;;;5098849;28;20186;-88
2024/01/25 10:42:21;;;;;;;48.67;15.67;;;7.20;90.40;;;;;;5079275;28;20175;-87
2024/01/25 10:44:47;;;;;;;58.70;15.47;;;7.20;90.30;;;;;;5079370;28;20199;-88
2024/01/25 10:47:12;;;;;;;42.97;15.30;;;7.20;90.20;;;;;;5079381;28;20194;-89
2024/01/25 10:49:38;;;;;;;51.37;15.97;;;7.30;90.20;;;;;;5097493;28;20163;-89
2024/01/25 10:52:05;;;;;;;49.87;14.83;;;7.30;90.10;;;;;;5097675;28;20193;-88
2024/01/25 10:54:30;;;;;;;44.40;15.70;;;7.30;90.10;;;;;;5097655;28;20547;-89
2024/01/25 10:56:58;;;;;;;50.97;15.37;;;7.30;90.00;;;;;;5097465;28;20207;-89
2024/01/25 10:59:25;;;;;;;41.83;15.50;;;7.30;89.90;;;;;;5079441;28;20177;-89
2024/01/25 11:01:50;;;;;;;43.53;15.63;;;7.40;89.90;;;;;;5079354;28;20210;-88
2024/01/25 11:04:17;;;;;;;45.70;16.27;;;7.40;89.80;;;;;;5096696;28;20705;-88
2024/01/25 11:06:45;;;;;;;40.40;15.17;;;7.30;89.70;;;;;;5096763;28;20192;-88
2024/01/25 11:09:18;;;;;;;41.00;14.73;;;7.30;89.80;;;;;;5098332;28;20240;-88
2024/01/25 11:11:49;;;;;;;54.43;17.40;;;7.40;89.70;;;;;;5079062;28;20170;-88
2024/01/25 11:14:16;;;;;;;44.40;16.00;;;7.40;89.70;;;;;;5080175;28;20171;-89
2024/01/25 11:16:44;;;;;;;57.77;17.10;;;7.30;89.50;;;;;;5079608;28;20218;-89
2024/01/25 11:19:20;;;;;;;54.20;16.23;;;7.40;89.80;;;;;;5079174;28;20726;-90
2024/01/25 11:21:50;;;;;;;47.50;16.83;;;7.40;89.80;;;;;;5078992;28;20657;-91
2024/01/25 11:24:21;;;;;;;42.63;17.10;;;7.40;89.70;;;;;;5079157;28;20194;-90
2024/01/25 11:26:47;;;;;;;42.40;15.83;;;7.30;89.50;;;;;;5079284;28;20195;-90
2024/01/25 11:29:16;;;;;;;45.63;15.90;;;7.40;89.60;;;;;;5079664;28;20548;-89
2024/01/25 11:31:46;;;;;;;43.57;16.30;;;7.30;89.60;;;;;;5079194;28;20273;-89
2024/01/25 11:34:13;;;;;;;46.47;16.80;;;7.40;89.70;;;;;;5079350;28;20185;-89
2024/01/25 11:36:38;;;;;;;47.10;17.77;;;7.40;89.50;;;;;;5078554;28;20261;-89
2024/01/25 11:39:06;;;;;;;39.03;17.13;;;7.30;89.30;;;;;;5078723;28;20218;-90
2024/01/25 11:41:32;;;;;;;41.40;16.53;;;7.40;89.40;;;;;;5079472;28;20186;-89
2024/01/25 11:43:57;;;;;;;48.60;18.07;;;7.30;89.20;;;;;;5079241;28;20580;-89
2024/01/25 11:46:24;;;;;;;45.57;18.93;;;7.40;89.40;;;;;;5096781;28;20194;-89
2024/01/25 11:48:50;;;;;;;47.23;20.70;;;7.30;89.50;;;;;;5077822;28;20220;-89
2024/01/25 11:51:16;;;;;;;44.80;19.27;;;7.40;89.50;;;;;;5078634;28;20178;-90
2024/01/25 11:53:41;;;;;;;48.80;20.70;;;7.30;89.50;;;;;;5078843;28;20691;-89
2024/01/25 11:56:16;;;;;;;48.67;21.37;;;7.40;89.50;;;;;;5078433;28;20198;-90
2024/01/25 11:58:43;;;;;;;49.27;21.43;;;7.40;89.60;;;;;;5078250;28;20197;-89
2024/01/25 12:01:09;;;;;;;55.17;20.23;;;7.30;89.60;;;;;;5079339;28;20179;-89
2024/01/25 12:03:38;;;;;;;58.90;19.77;;;7.30;89.60;;;;;;5078884;28;20197;-89
2024/01/25 12:06:05;;;;;;;48.87;21.80;;;7.30;89.70;;;;;;5077824;28;20305;-89
2024/01/25 12:08:33;;;;;;;53.30;20.87;;;7.30;89.80;;;;;;5077644;28;20259;-90
2024/01/25 12:11:07;;;;;;;45.70;21.57;;;7.30;89.60;;;;;;5078253;28;20182;-89
2024/01/25 12:13:39;;;;;;;54.00;20.97;;;7.30;89.60;;;;;;5077577;28;20174;-89
2024/01/25 12:16:05;;;;;;;42.03;19.50;;;7.30;89.80;;;;;;5077847;28;20199;-89
2024/01/25 12:18:32;;;;;;;47.87;20.83;;;7.30;89.90;;;;;;5079051;28;20189;-89
2024/01/25 12:21:05;;;;;;;57.47;22.87;;;7.30;89.80;;;;;;5078083;28;20178;-88
2024/01/25 12:23:38;;;;;;;37.17;21.87;;;7.30;89.90;;;;;;5095617;28;20212;-88
2024/01/25 12:26:08;;;;;;;51.73;20.00;;;7.30;89.60;;;;;;5077475;28;20210;-89
2024/01/25 12:28:34;;;;;;;43.37;17.40;;;7.30;89.70;;;;;;5077552;28;20273;-88
2024/01/25 12:31:02;;;;;;;41.97;19.30;;;7.30;89.80;;;;;;5095586;28;20654;-88
2024/01/25 12:33:28;;;;;;;53.20;18.20;;;7.30;89.70;;;;;;5077458;28;20171;-88